Rick Husband Amarillo International Airport
KAMA : now visible

Airfield :











YOU CAN JOIN US ON...

 
LOGIN :

Register | Disclaimer

   EN    FR    IT 

 









Legend :    VFR   Marginal VFR   IFR   Intensive IFR   Very Intensive IFR
Visi :
Ceiling :
>= 8 km
>= 3000ft
5 to 8 km
1000 to 3000 ft
1500m to 5 km
500 to 1000 ft
800 to 1500m
200 to 500 ft
< 800m
< 200 ft
Symbols :   Thunderstorms  Fog  Heavy snow  Heavy precipitations  Wind > 20 kt






- Airport Elevation : 3607 ft
- IATA code : AMA


KAMA - Rick Husband Amarillo International

CURRENT METAR :
  • 250653Z AUTO 17013KT 10SM CLR 27/14 A2996 RMK AO2 SLP077 T02720144 $

EXPIRED METARs :
  • 250553Z AUTO 17014KT 10SM CLR 28/14 A2996 RMK AO2 SLP077 T02830144 10350 20278 403610233 51011 $
  • 250453Z AUTO 16013KT 10SM CLR 28/13 A2996 RMK AO2 SLP077 T02780133 $
  • 250353Z 17014KT 10SM CLR 29/13 A2995 RMK AO2 SLP074 T02940128 $
  • 250253Z 16012KT 10SM CLR 30/12 A2993 RMK AO2 SLP067 T03000122 53004 $

TAF KAMA
Valid from the 25 at 06:00 until the 26 at 06:00 UTC


250522Z 2506/2606 18015KT P6SM BKN150
FM251400 20015KT P6SM SCT250
FM260000 17012KT P6SM VCSH BKN100
KZAB FIR / North America



MET'MAP, your aeronautical weather chart ! - Copyright ORBIFLY December 2007 - Disclaimer

ORBIFLY MET'MAP TEAM :

Programming & Development : Alexandra Zaïnal
Original concept : Baudouin d'Aumeries
Technical & hardware support : Manuel Goepfert
Assistance : Marc-Olivier Méhu




SOURCES & CREDITS :

   NOAA       Earth
Advisory